createdAt,value
2018-12-04T00:00:57.338Z,100.00
2018-12-04T00:04:00.732Z,100.00
2018-12-04T00:07:04.310Z,100.00
2018-12-04T00:10:08.607Z,100.00
2018-12-04T00:13:12.175Z,100.00
2018-12-04T00:16:15.552Z,100.00
2018-12-04T00:19:18.964Z,100.00
2018-12-04T00:22:22.437Z,100.00
2018-12-04T00:25:25.964Z,100.00
2018-12-04T00:28:29.421Z,100.00
2018-12-04T00:31:32.970Z,100.00
2018-12-04T00:34:36.531Z,100.00
2018-12-04T00:37:40.061Z,100.00
2018-12-04T00:40:43.560Z,100.00
2018-12-04T00:43:47.054Z,100.00
2018-12-04T00:46:50.528Z,100.00
2018-12-04T00:49:54.127Z,100.00
2018-12-04T00:52:57.831Z,100.00
2018-12-04T00:56:01.444Z,100.00
2018-12-04T00:59:05.171Z,100.00
2018-12-04T01:02:08.765Z,100.00
2018-12-04T01:05:12.373Z,100.00
2018-12-04T01:08:16.098Z,100.00
2018-12-04T01:11:19.731Z,100.00
2018-12-04T01:14:23.324Z,100.00
2018-12-04T01:17:26.917Z,100.00
2018-12-04T01:20:31.569Z,100.00
2018-12-04T01:23:35.231Z,100.00
2018-12-04T01:26:38.862Z,100.00
2018-12-04T01:29:42.502Z,100.00
2018-12-04T01:32:46.141Z,100.00
2018-12-04T01:35:49.703Z,100.00
2018-12-04T01:38:54.276Z,100.00
2018-12-04T01:41:57.930Z,100.00
2018-12-04T01:45:01.593Z,100.00
2018-12-04T01:48:05.230Z,100.00
2018-12-04T01:51:09.005Z,100.00
2018-12-04T01:54:12.707Z,100.00
2018-12-04T01:57:16.431Z,100.00
2018-12-04T02:00:20.086Z,100.00
2018-12-04T02:03:23.620Z,100.00
2018-12-04T02:06:27.033Z,100.00
2018-12-04T02:09:30.735Z,100.00
2018-12-04T02:12:34.489Z,100.00
2018-12-04T02:15:38.284Z,100.00
2018-12-04T02:18:41.913Z,100.00
2018-12-04T02:21:45.509Z,100.00
2018-12-04T02:24:49.127Z,100.00
2018-12-04T02:27:52.688Z,100.00
2018-12-04T02:30:57.130Z,100.00
2018-12-04T02:34:00.987Z,100.00
2018-12-04T02:37:04.603Z,100.00
2018-12-04T02:40:08.167Z,100.00
2018-12-04T02:43:11.733Z,100.00
2018-12-04T02:46:15.343Z,100.00
2018-12-04T02:49:18.993Z,100.00
2018-12-04T02:52:22.544Z,100.00
2018-12-04T02:55:26.167Z,100.00
2018-12-04T02:58:29.795Z,100.00
2018-12-04T03:01:33.386Z,100.00
2018-12-04T03:04:36.968Z,100.00
2018-12-04T03:07:40.624Z,100.00
2018-12-04T03:10:44.199Z,100.00
2018-12-04T03:13:47.792Z,100.00
2018-12-04T03:16:51.524Z,100.00
2018-12-04T03:19:54.929Z,100.00
2018-12-04T03:22:59.476Z,100.00
2018-12-04T03:26:03.069Z,100.00
2018-12-04T03:29:06.713Z,100.00
2018-12-04T03:32:10.501Z,100.00
2018-12-04T03:35:14.088Z,100.00
2018-12-04T03:38:17.631Z,100.00
2018-12-04T03:41:21.218Z,100.00
2018-12-04T03:44:24.768Z,100.00
2018-12-04T03:47:28.372Z,100.00
2018-12-04T03:50:31.917Z,100.00
2018-12-04T03:53:35.528Z,100.00
2018-12-04T03:56:39.031Z,100.00
2018-12-04T03:59:42.584Z,100.00
2018-12-04T04:02:46.151Z,100.00
2018-12-04T04:05:49.657Z,100.00
2018-12-04T04:08:53.156Z,100.00
2018-12-04T04:11:56.743Z,100.00
2018-12-04T04:15:00.279Z,100.00
2018-12-04T04:18:03.790Z,100.00
2018-12-04T04:21:07.352Z,100.00
2018-12-04T04:24:10.869Z,100.00
2018-12-04T04:27:14.460Z,100.00
2018-12-04T04:30:18.014Z,100.00
2018-12-04T04:33:21.585Z,100.00
2018-12-04T04:36:25.222Z,100.00
2018-12-04T04:39:28.782Z,100.00
2018-12-04T04:42:32.364Z,100.00
2018-12-04T04:45:35.945Z,100.00
2018-12-04T04:48:39.464Z,100.00
2018-12-04T04:51:43.063Z,100.00
2018-12-04T04:54:46.567Z,100.00
2018-12-04T04:57:50.376Z,100.00
2018-12-04T05:00:54.018Z,100.00
2018-12-04T05:03:57.644Z,100.00
2018-12-04T05:07:01.142Z,100.00
2018-12-04T05:10:05.728Z,100.00
2018-12-04T05:13:09.379Z,100.00
2018-12-04T05:16:12.859Z,100.00
2018-12-04T05:19:16.364Z,100.00
2018-12-04T05:22:20.963Z,100.00
2018-12-04T05:25:24.485Z,100.00
2018-12-04T05:28:28.042Z,100.00
2018-12-04T05:31:31.647Z,100.00
2018-12-04T05:34:35.162Z,100.00
2018-12-04T05:37:38.750Z,100.00
2018-12-04T05:40:42.319Z,100.00
2018-12-04T05:43:45.811Z,100.00
2018-12-04T05:46:49.493Z,100.00
2018-12-04T05:49:53.124Z,100.00
2018-12-04T05:53:07.831Z,100.00
2018-12-04T05:56:13.029Z,100.00
2018-12-04T05:59:16.605Z,100.00
2018-12-04T06:02:20.438Z,99.42
2018-12-04T06:05:24.008Z,98.39
2018-12-04T06:08:27.591Z,98.58
2018-12-04T06:11:31.339Z,98.19
2018-12-04T06:14:34.815Z,97.71
2018-12-04T06:17:38.392Z,97.09
2018-12-04T06:20:41.993Z,96.17
2018-12-04T06:23:45.434Z,96.36
2018-12-04T06:26:48.944Z,95.99
2018-12-04T06:29:52.580Z,95.70
2018-12-04T06:32:56.046Z,94.97
2018-12-04T06:35:59.501Z,94.87
2018-12-04T06:39:03.043Z,94.27
2018-12-04T06:42:06.548Z,94.01
2018-12-04T06:45:10.135Z,92.88
2018-12-04T06:48:13.645Z,92.30
2018-12-04T06:51:17.163Z,93.01
2018-12-04T06:54:20.623Z,91.64
2018-12-04T06:57:24.373Z,90.85
2018-12-04T07:00:28.017Z,90.07
2018-12-04T07:03:31.715Z,90.20
2018-12-04T07:06:35.246Z,89.67
2018-12-04T07:09:40.065Z,89.86
2018-12-04T07:12:44.546Z,90.65
2018-12-04T07:15:49.185Z,91.33
2018-12-04T07:18:52.825Z,92.24
2018-12-04T07:21:56.344Z,92.13
2018-12-04T07:25:00.001Z,93.35
2018-12-04T07:28:03.963Z,90.60
2018-12-04T07:31:07.642Z,91.15
2018-12-04T07:34:11.102Z,89.51
2018-12-04T07:37:14.648Z,88.32
2018-12-04T07:40:18.330Z,88.04
2018-12-04T07:43:21.905Z,88.29
2018-12-04T07:46:26.504Z,88.39
2018-12-04T07:49:29.941Z,87.76
2018-12-04T07:52:33.480Z,88.13
2018-12-04T07:55:37.139Z,88.24
2018-12-04T07:58:40.702Z,88.23
2018-12-04T08:01:44.403Z,87.92
2018-12-04T08:04:47.906Z,86.84
2018-12-04T08:07:51.429Z,87.51
2018-12-04T08:10:54.903Z,86.58
2018-12-04T08:13:58.581Z,85.87
2018-12-04T08:17:02.083Z,86.91
2018-12-04T08:20:07.020Z,86.27
2018-12-04T08:23:10.628Z,85.25
2018-12-04T08:26:14.470Z,85.79
2018-12-04T08:29:17.936Z,86.10
2018-12-04T08:32:22.629Z,86.66
2018-12-04T08:35:26.144Z,85.72
2018-12-04T08:38:29.612Z,84.46
2018-12-04T08:41:33.180Z,84.50
2018-12-04T08:44:36.789Z,82.40
2018-12-04T08:47:40.296Z,82.53
2018-12-04T08:50:43.721Z,82.68
2018-12-04T08:53:47.199Z,84.11
2018-12-04T08:56:50.816Z,85.71
2018-12-04T08:59:54.600Z,85.82
2018-12-04T09:02:58.466Z,87.15
2018-12-04T09:06:02.142Z,88.83
2018-12-04T09:09:09.520Z,88.40
2018-12-04T09:12:14.182Z,85.86
2018-12-04T09:15:17.624Z,88.60
2018-12-04T09:18:21.263Z,89.66
2018-12-04T09:21:24.825Z,88.35
2018-12-04T09:24:30.886Z,88.80
2018-12-04T09:27:32.031Z,87.89
2018-12-04T09:30:35.668Z,88.62
2018-12-04T09:33:39.213Z,89.66
2018-12-04T09:36:42.716Z,89.60
2018-12-04T09:39:47.275Z,89.46
2018-12-04T09:42:50.774Z,89.58
2018-12-04T09:45:54.347Z,90.60
2018-12-04T09:48:58.107Z,90.55
2018-12-04T09:52:02.172Z,91.01
2018-12-04T09:55:06.064Z,91.94
2018-12-04T09:58:09.621Z,90.44
2018-12-04T10:01:13.155Z,89.21
2018-12-04T10:04:16.612Z,89.80
2018-12-04T10:07:20.260Z,89.84
2018-12-04T10:10:23.722Z,89.44
2018-12-04T10:13:28.237Z,90.01
2018-12-04T10:16:31.720Z,89.35
2018-12-04T10:19:35.337Z,88.45
2018-12-04T10:22:38.944Z,87.43
2018-12-04T10:25:47.701Z,86.50
2018-12-04T10:28:51.291Z,86.81
2018-12-04T10:31:56.069Z,88.04
2018-12-04T10:34:58.833Z,87.92
2018-12-04T10:38:02.478Z,88.74
2018-12-04T10:41:06.125Z,90.33
2018-12-04T10:44:09.939Z,89.10
2018-12-04T10:47:13.674Z,88.36
2018-12-04T10:50:17.331Z,89.15
2018-12-04T10:53:20.954Z,89.68
2018-12-04T10:56:25.516Z,88.65
2018-12-04T10:59:29.114Z,90.55
2018-12-04T11:02:36.874Z,90.18
2018-12-04T11:05:41.459Z,91.31
2018-12-04T11:08:44.914Z,91.35
2018-12-04T11:11:48.769Z,90.41
2018-12-04T11:14:52.375Z,89.63
2018-12-04T11:17:55.961Z,89.75
2018-12-04T11:20:59.723Z,88.43
2018-12-04T11:24:03.243Z,88.47
2018-12-04T11:27:06.783Z,88.79
2018-12-04T11:30:10.601Z,89.67
2018-12-04T11:33:14.577Z,89.39
2018-12-04T11:36:18.288Z,88.01
2018-12-04T11:39:21.818Z,87.61
2018-12-04T11:42:25.405Z,87.62
2018-12-04T11:45:29.005Z,87.42
2018-12-04T11:48:32.505Z,87.85
2018-12-04T11:51:36.048Z,85.10
2018-12-04T11:54:40.149Z,85.44
2018-12-04T11:57:43.764Z,84.72
2018-12-04T12:00:47.406Z,84.73
2018-12-04T12:03:51.165Z,86.08
2018-12-04T12:06:54.771Z,86.88
2018-12-04T12:09:58.389Z,87.11
2018-12-04T12:13:02.613Z,89.51
2018-12-04T12:16:06.130Z,89.29
2018-12-04T12:19:09.787Z,89.02
2018-12-04T12:22:13.298Z,89.73
2018-12-04T12:25:16.814Z,89.80
2018-12-04T12:28:20.611Z,89.97
2018-12-04T12:31:24.451Z,89.49
2018-12-04T12:34:27.990Z,89.39
2018-12-04T12:37:31.551Z,88.85
2018-12-04T12:40:35.226Z,87.77
2018-12-04T12:43:38.683Z,89.14
2018-12-04T12:46:42.267Z,89.74
2018-12-04T12:49:45.760Z,90.35
2018-12-04T12:52:49.266Z,90.04
2018-12-04T12:55:52.855Z,90.83
2018-12-04T12:58:56.456Z,88.62
2018-12-04T13:01:59.913Z,87.79
2018-12-04T13:05:03.537Z,88.86
2018-12-04T13:08:07.102Z,88.33
2018-12-04T13:11:10.861Z,87.19
2018-12-04T13:14:14.350Z,86.64
2018-12-04T13:17:17.869Z,86.36
2018-12-04T13:20:21.476Z,85.42
2018-12-04T13:23:25.130Z,86.34
2018-12-04T13:26:28.772Z,84.70
2018-12-04T13:29:32.443Z,82.35
2018-12-04T13:32:36.368Z,81.87
2018-12-04T13:35:39.841Z,81.10
2018-12-04T13:38:43.266Z,81.57
2018-12-04T13:41:46.910Z,83.01
2018-12-04T13:44:50.546Z,81.05
2018-12-04T13:47:54.048Z,80.34
2018-12-04T13:50:57.891Z,81.69
2018-12-04T13:54:02.467Z,82.00
2018-12-04T13:57:06.289Z,82.74
2018-12-04T14:00:10.084Z,79.84
2018-12-04T14:03:13.685Z,79.66
2018-12-04T14:06:17.186Z,80.20
2018-12-04T14:09:21.283Z,77.64
2018-12-04T14:12:24.879Z,73.86
2018-12-04T14:15:28.479Z,74.12
2018-12-04T14:18:32.196Z,73.44
2018-12-04T14:21:36.844Z,73.71
2018-12-04T14:24:41.340Z,73.49
2018-12-04T14:27:49.224Z,74.76
2018-12-04T14:30:49.400Z,74.45
2018-12-04T14:33:54.036Z,75.86
2018-12-04T14:36:57.573Z,75.14
2018-12-04T14:40:01.189Z,75.68
2018-12-04T14:43:05.867Z,75.38
2018-12-04T14:46:09.589Z,76.59
2018-12-04T14:49:13.221Z,76.71
2018-12-04T14:52:16.901Z,74.62
2018-12-04T14:55:20.938Z,76.73
2018-12-04T14:58:24.560Z,77.23
2018-12-04T15:01:28.351Z,76.79
2018-12-04T15:04:32.236Z,77.01
2018-12-04T15:07:35.962Z,78.52
2018-12-04T15:10:39.922Z,78.49
2018-12-04T15:13:43.450Z,78.53
2018-12-04T15:16:47.019Z,79.13
2018-12-04T15:19:50.579Z,78.25
2018-12-04T15:22:54.263Z,79.89
2018-12-04T15:25:58.961Z,79.93
2018-12-04T15:29:02.581Z,80.69
2018-12-04T15:32:06.417Z,80.91
2018-12-04T15:35:09.989Z,81.83
2018-12-04T15:38:13.629Z,82.11
2018-12-04T15:41:17.175Z,82.10
2018-12-04T15:44:20.789Z,81.82
2018-12-04T15:47:25.676Z,80.25
2018-12-04T15:50:30.190Z,80.26
2018-12-04T15:53:33.682Z,80.00
2018-12-04T15:56:37.249Z,80.65
2018-12-04T15:59:40.859Z,81.04
2018-12-04T16:02:45.553Z,80.53
2018-12-04T16:05:48.979Z,81.17
2018-12-04T16:08:52.490Z,82.03
2018-12-04T16:11:56.220Z,83.12
2018-12-04T16:14:59.815Z,82.88
2018-12-04T16:18:03.658Z,83.76
2018-12-04T16:21:08.070Z,85.07
2018-12-04T16:24:11.906Z,85.22
2018-12-04T16:27:15.504Z,84.95
2018-12-04T16:30:19.033Z,85.05
2018-12-04T16:33:22.416Z,84.83
2018-12-04T16:36:26.275Z,85.64
2018-12-04T16:39:29.895Z,85.04
2018-12-04T16:42:33.520Z,86.37
2018-12-04T16:45:36.991Z,88.27
2018-12-04T16:48:40.563Z,87.89
2018-12-04T16:51:44.141Z,86.73
2018-12-04T16:54:48.510Z,86.48
2018-12-04T16:57:52.204Z,86.42
2018-12-04T17:00:55.896Z,86.61
2018-12-04T17:03:59.571Z,86.77
2018-12-04T17:07:03.432Z,86.09
2018-12-04T17:10:08.287Z,85.38
2018-12-04T17:13:11.907Z,86.07
2018-12-04T17:16:15.647Z,86.14
2018-12-04T17:19:19.347Z,86.28
2018-12-04T17:22:23.013Z,85.85
2018-12-04T17:25:26.675Z,85.13
2018-12-04T17:28:30.561Z,85.16
2018-12-04T17:31:34.171Z,85.50
2018-12-04T17:34:38.077Z,86.36
2018-12-04T17:37:41.652Z,86.74
2018-12-04T17:40:45.223Z,87.02
2018-12-04T17:43:48.952Z,86.86
2018-12-04T17:46:52.712Z,86.87
2018-12-04T17:49:56.409Z,87.48
2018-12-04T17:53:00.309Z,87.75
2018-12-04T17:56:04.262Z,88.04
2018-12-04T17:59:08.051Z,88.03
2018-12-04T18:02:13.349Z,88.82
2018-12-04T18:05:18.018Z,89.15
2018-12-04T18:08:21.780Z,88.80
2018-12-04T18:11:25.329Z,88.33
2018-12-04T18:14:28.866Z,88.90
2018-12-04T18:17:32.373Z,89.09
2018-12-04T18:20:36.083Z,89.37
2018-12-04T18:23:39.653Z,90.12
2018-12-04T18:26:43.328Z,89.85
2018-12-04T18:29:46.856Z,89.82
2018-12-04T18:32:50.453Z,89.99
2018-12-04T18:35:54.192Z,90.13
2018-12-04T18:38:57.760Z,90.16
2018-12-04T18:42:01.305Z,89.53
2018-12-04T18:45:05.410Z,89.60
2018-12-04T18:48:08.989Z,89.72
2018-12-04T18:51:12.601Z,89.43
2018-12-04T18:54:16.167Z,89.82
2018-12-04T18:57:19.804Z,89.92
2018-12-04T19:00:25.355Z,89.99
2018-12-04T19:03:28.958Z,91.21
2018-12-04T19:06:32.574Z,90.78
2018-12-04T19:09:37.466Z,90.11
2018-12-04T19:12:41.421Z,90.15
2018-12-04T19:15:45.049Z,89.47
2018-12-04T19:18:48.854Z,91.02
2018-12-04T19:21:52.600Z,90.87
2018-12-04T19:24:56.354Z,89.90
2018-12-04T19:28:00.459Z,90.18
2018-12-04T19:31:04.114Z,89.97
2018-12-04T19:34:07.906Z,90.04
2018-12-04T19:37:11.592Z,89.83
2018-12-04T19:40:20.587Z,89.20
2018-12-04T19:43:24.286Z,89.27
2018-12-04T19:46:27.975Z,89.49
2018-12-04T19:49:31.633Z,88.94
2018-12-04T19:52:35.641Z,89.20
2018-12-04T19:55:39.175Z,88.91
2018-12-04T19:58:42.917Z,89.57
2018-12-04T20:01:46.668Z,89.19
2018-12-04T20:04:50.144Z,89.53
2018-12-04T20:07:53.840Z,89.47
2018-12-04T20:10:57.450Z,89.61
2018-12-04T20:14:01.125Z,90.90
2018-12-04T20:17:04.865Z,91.04
2018-12-04T20:20:08.483Z,90.07
2018-12-04T20:23:12.163Z,91.59
2018-12-04T20:26:16.908Z,91.25
2018-12-04T20:29:21.501Z,90.33
2018-12-04T20:32:25.199Z,90.40
2018-12-04T20:35:28.845Z,89.92
2018-12-04T20:38:32.800Z,90.59
2018-12-04T20:41:36.232Z,89.12
2018-12-04T20:44:39.929Z,90.58
2018-12-04T20:47:43.757Z,90.88
2018-12-04T20:50:47.387Z,91.62
2018-12-04T20:53:50.945Z,93.52
2018-12-04T20:56:54.585Z,95.64
2018-12-04T20:59:58.186Z,95.40
2018-12-04T21:03:01.808Z,96.35
2018-12-04T21:06:05.557Z,95.38
2018-12-04T21:09:09.278Z,96.01
2018-12-04T21:12:12.840Z,95.34
2018-12-04T21:15:16.555Z,96.89
2018-12-04T21:18:20.089Z,96.92
2018-12-04T21:21:23.636Z,98.64
2018-12-04T21:24:27.222Z,98.29
2018-12-04T21:27:36.039Z,99.59
2018-12-04T21:30:44.924Z,99.02
2018-12-04T21:33:53.785Z,99.25
2018-12-04T21:37:02.575Z,99.88
2018-12-04T21:40:11.464Z,99.49
2018-12-04T21:43:20.395Z,98.70
2018-12-04T21:46:29.185Z,98.17
2018-12-04T21:49:32.671Z,97.44
2018-12-04T21:52:36.366Z,96.92
2018-12-04T21:55:40.037Z,97.25
2018-12-04T21:58:43.614Z,98.05
2018-12-04T22:01:48.392Z,97.93
2018-12-04T22:04:52.032Z,96.77
2018-12-04T22:07:55.639Z,95.55
2018-12-04T22:10:59.329Z,95.22
2018-12-04T22:14:02.852Z,95.30
2018-12-04T22:17:06.348Z,95.31
2018-12-04T22:20:10.012Z,95.09
2018-12-04T22:23:13.660Z,95.52
2018-12-04T22:26:17.185Z,94.90
2018-12-04T22:29:20.618Z,95.21
2018-12-04T22:32:24.289Z,95.25
2018-12-04T22:35:27.970Z,94.72
2018-12-04T22:38:32.647Z,95.62
2018-12-04T22:41:36.194Z,95.67
2018-12-04T22:44:39.808Z,95.60
2018-12-04T22:47:43.648Z,95.86
2018-12-04T22:50:47.309Z,94.72
2018-12-04T22:53:50.873Z,95.93
2018-12-04T22:56:54.421Z,96.78
2018-12-04T22:59:58.001Z,96.29
2018-12-04T23:03:01.595Z,96.17
2018-12-04T23:06:05.237Z,95.80
2018-12-04T23:09:10.516Z,95.86
2018-12-04T23:12:14.303Z,94.97
2018-12-04T23:15:17.858Z,94.83
2018-12-04T23:18:21.548Z,95.88
2018-12-04T23:21:25.050Z,96.28
2018-12-04T23:24:28.573Z,96.15
2018-12-04T23:27:32.048Z,96.53
2018-12-04T23:30:35.606Z,96.29
2018-12-04T23:33:39.201Z,96.29
2018-12-04T23:36:42.841Z,95.40
2018-12-04T23:39:46.531Z,96.05
2018-12-04T23:42:50.240Z,95.50
2018-12-04T23:45:53.812Z,94.63
2018-12-04T23:48:57.486Z,95.01
2018-12-04T23:52:01.064Z,95.29
2018-12-04T23:55:04.636Z,95.65
2018-12-04T23:58:08.157Z,94.10
